Time;durP1;ratioP1;P1;durP2;ratioP2;P2;SDS_P1;SDS_P2;PMS_P1;PMS_P2;Temp;Humidity;BMP_temperature;BMP_pressure;BME280_temperature;BME280_humidity;BME280_pressure;Samples;Min_cycle;Max_cycle;Signal;HPM_P1;HPM_P2
2021/01/09 00:00:12;;;;;;;22.50;13.00;;;0.00;10.60;;;;;;4844660;28;21503;-74
2021/01/09 00:02:35;;;;;;;21.87;13.53;;;-0.10;10.00;;;;;;4847244;28;20636;-73
2021/01/09 00:04:57;;;;;;;21.90;14.10;;;-0.20;3.50;;;;;;4842414;28;21050;-79
2021/01/09 00:07:20;;;;;;;20.97;12.77;;;0.00;3.60;;;;;;4842164;28;20620;-75
2021/01/09 00:09:43;;;;;;;18.70;12.07;;;-0.10;4.80;;;;;;4825776;28;21076;-76
2021/01/09 00:12:10;;;;;;;19.77;12.33;;;0.00;3.40;;;;;;4854376;28;20670;-76
2021/01/09 00:14:33;;;;;;;16.73;11.00;;;0.00;1.00;;;;;;4855432;28;20599;-76
2021/01/09 00:16:55;;;;;;;18.90;12.90;;;0.10;1.00;;;;;;4847370;28;20611;-75
2021/01/09 00:19:17;;;;;;;16.50;11.23;;;0.20;1.00;;;;;;4844191;28;20257;-76
2021/01/09 00:21:39;;;;;;;18.83;12.30;;;0.20;1.00;;;;;;4834314;28;20677;-76
2021/01/09 00:24:03;;;;;;;16.57;10.80;;;0.30;1.00;;;;;;4846896;28;21224;-74
2021/01/09 00:26:29;;;;;;;17.00;11.07;;;0.30;1.00;;;;;;4852398;28;20616;-75
2021/01/09 00:28:51;;;;;;;18.53;11.57;;;0.40;1.00;;;;;;4850246;28;20710;-76
2021/01/09 00:31:15;;;;;;;18.47;11.57;;;0.40;1.00;;;;;;4849338;28;21214;-74
2021/01/09 00:33:37;;;;;;;18.03;10.63;;;0.40;1.00;;;;;;4843712;28;20717;-77
2021/01/09 00:35:59;;;;;;;16.40;10.57;;;0.40;1.00;;;;;;4850374;28;20623;-76
2021/01/09 00:38:21;;;;;;;18.07;11.07;;;0.40;1.00;;;;;;4850683;28;20612;-76
2021/01/09 00:40:43;;;;;;;16.27;9.57;;;0.40;1.00;;;;;;4850091;28;20721;-77
2021/01/09 00:43:06;;;;;;;19.70;12.97;;;0.40;1.00;;;;;;4849993;28;20647;-75
2021/01/09 00:45:28;;;;;;;20.23;13.13;;;0.40;1.00;;;;;;4846933;28;20623;-76
2021/01/09 00:47:51;;;;;;;18.77;12.90;;;0.40;1.00;;;;;;4852104;28;20611;-74
2021/01/09 00:50:13;;;;;;;14.67;10.50;;;0.40;1.00;;;;;;4843579;28;20616;-76
2021/01/09 00:52:36;;;;;;;15.73;11.03;;;0.40;1.00;;;;;;4841718;28;20643;-75
2021/01/09 00:54:58;;;;;;;14.37;10.27;;;0.40;1.00;;;;;;4852331;28;20604;-80
2021/01/09 00:57:20;;;;;;;14.53;9.90;;;0.40;1.00;;;;;;4845914;28;20616;-76
2021/01/09 00:59:43;;;;;;;17.93;11.83;;;0.50;1.00;;;;;;4850571;28;21164;-76
2021/01/09 01:02:05;;;;;;;16.80;11.30;;;0.50;1.00;;;;;;4847258;28;20647;-77
2021/01/09 01:04:27;;;;;;;20.63;11.70;;;0.50;1.00;;;;;;4849111;28;21106;-78
2021/01/09 01:06:49;;;;;;;17.50;12.17;;;0.50;1.00;;;;;;4850794;28;20186;-80
2021/01/09 01:09:12;;;;;;;21.80;14.27;;;0.50;1.00;;;;;;4852129;28;20654;-76
2021/01/09 01:11:34;;;;;;;16.00;10.83;;;0.50;1.00;;;;;;4858909;28;20186;-75
2021/01/09 01:13:57;;;;;;;15.57;9.73;;;0.40;1.00;;;;;;4850632;28;20620;-79
2021/01/09 01:16:21;;;;;;;16.43;10.60;;;0.40;1.00;;;;;;4851578;28;20186;-78
2021/01/09 01:18:43;;;;;;;15.40;10.83;;;0.30;1.00;;;;;;4844660;28;20705;-76
2021/01/09 01:21:06;;;;;;;14.00;9.00;;;0.40;1.00;;;;;;4856161;28;21233;-75
2021/01/09 01:23:28;;;;;;;16.03;11.50;;;0.30;1.00;;;;;;4844762;28;21183;-78
2021/01/09 01:25:50;;;;;;;15.13;10.63;;;0.30;1.00;;;;;;4858617;28;21160;-75
2021/01/09 01:28:12;;;;;;;16.20;11.00;;;0.20;1.00;;;;;;4843959;28;20744;-79
2021/01/09 01:30:34;;;;;;;16.23;11.63;;;0.10;1.00;;;;;;4854845;28;20616;-75
2021/01/09 01:32:58;;;;;;;15.13;10.83;;;0.10;1.00;;;;;;4854429;28;21002;-77
2021/01/09 01:35:20;;;;;;;17.40;10.93;;;0.20;1.00;;;;;;4849024;28;20620;-79
2021/01/09 01:37:42;;;;;;;19.73;11.93;;;0.20;1.00;;;;;;4851267;28;20612;-78
2021/01/09 01:40:05;;;;;;;18.57;11.57;;;0.00;1.00;;;;;;4849236;28;20588;-76
2021/01/09 01:42:29;;;;;;;17.00;11.87;;;0.10;1.00;;;;;;4851247;28;20624;-75
2021/01/09 01:44:51;;;;;;;19.70;13.00;;;0.10;1.00;;;;;;4849980;28;20651;-76
2021/01/09 01:47:17;;;;;;;18.37;12.50;;;0.10;1.00;;;;;;4856973;28;20627;-78
2021/01/09 01:49:41;;;;;;;19.93;13.33;;;0.20;1.00;;;;;;4847654;28;20604;-76
2021/01/09 01:52:03;;;;;;;18.03;11.97;;;0.10;1.00;;;;;;4844418;28;20612;-74
2021/01/09 01:54:25;;;;;;;19.33;11.57;;;0.10;1.00;;;;;;4847622;28;20645;-77
2021/01/09 01:56:52;;;;;;;16.07;11.77;;;0.20;1.00;;;;;;4848904;28;21046;-75
2021/01/09 01:59:14;;;;;;;16.13;10.33;;;0.20;1.00;;;;;;4854874;28;20622;-78
2021/01/09 02:01:38;;;;;;;13.53;9.77;;;0.30;1.00;;;;;;4846774;28;20647;-76
2021/01/09 02:04:00;;;;;;;14.17;9.20;;;0.30;1.00;;;;;;4830350;28;20999;-78
2021/01/09 02:06:26;;;;;;;15.53;8.93;;;0.30;1.00;;;;;;4832308;28;20623;-75
2021/01/09 02:08:53;;;;;;;14.00;9.17;;;0.30;1.00;;;;;;4847893;28;20945;-76
2021/01/09 02:11:21;;;;;;;13.20;8.53;;;0.30;1.00;;;;;;4844839;28;20243;-76
2021/01/09 02:13:46;;;;;;;14.13;9.73;;;0.30;1.00;;;;;;4845643;28;20608;-74
2021/01/09 02:16:10;;;;;;;14.30;9.50;;;0.40;1.00;;;;;;4846231;28;20643;-77
2021/01/09 02:18:36;;;;;;;11.83;8.60;;;0.30;1.00;;;;;;4840624;28;20225;-74
2021/01/09 02:21:05;;;;;;;13.13;9.27;;;0.30;1.00;;;;;;4849562;28;20714;-76
2021/01/09 02:23:29;;;;;;;12.97;9.10;;;0.30;1.00;;;;;;4847774;28;20535;-75
2021/01/09 02:25:52;;;;;;;11.17;8.77;;;0.30;1.00;;;;;;4846913;28;20598;-75
2021/01/09 02:28:14;;;;;;;15.57;10.80;;;2.10;1.00;;;;;;4830102;28;20195;-75
2021/01/09 02:30:40;;;;;;;19.53;13.13;;;0.20;1.00;;;;;;4847617;28;20991;-76
2021/01/09 02:33:06;;;;;;;19.53;13.77;;;0.20;1.00;;;;;;4846551;28;20730;-76
2021/01/09 02:35:29;;;;;;;14.43;10.03;;;0.00;1.00;;;;;;4832957;28;20636;-78
2021/01/09 02:37:52;;;;;;;14.73;9.83;;;0.00;1.00;;;;;;4849259;28;20628;-76
2021/01/09 02:40:16;;;;;;;16.53;10.90;;;-0.10;1.00;;;;;;4846079;28;21068;-77
2021/01/09 02:42:38;;;;;;;15.87;10.40;;;-0.20;1.00;;;;;;4853260;28;20612;-76
2021/01/09 02:45:02;;;;;;;16.67;11.00;;;-0.30;1.00;;;;;;4846902;28;20647;-77
2021/01/09 02:47:24;;;;;;;15.97;10.33;;;-0.40;1.00;;;;;;4846488;28;20624;-78
2021/01/09 02:49:46;;;;;;;18.40;10.33;;;-0.50;1.00;;;;;;4843533;28;20675;-79
2021/01/09 02:52:09;;;;;;;14.60;10.50;;;-0.60;1.00;;;;;;4828753;28;20253;-75
2021/01/09 02:54:31;;;;;;;14.60;10.20;;;-0.60;1.00;;;;;;4845632;28;20988;-76
2021/01/09 02:56:54;;;;;;;16.63;10.23;;;-0.70;1.00;;;;;;4848039;28;20625;-76
2021/01/09 02:59:16;;;;;;;16.93;11.17;;;-0.80;1.00;;;;;;4828279;28;20683;-76
2021/01/09 03:01:38;;;;;;;17.53;11.13;;;-0.90;1.00;;;;;;4853725;28;20822;-76
2021/01/09 03:04:01;;;;;;;21.07;13.30;;;-0.90;1.00;;;;;;4848037;28;20709;-78
2021/01/09 03:06:23;;;;;;;19.87;13.17;;;-0.90;1.00;;;;;;4845948;28;20713;-77
2021/01/09 03:08:45;;;;;;;17.97;13.17;;;-1.00;1.00;;;;;;4831471;28;20636;-75
2021/01/09 03:11:07;;;;;;;19.93;12.17;;;-1.00;1.00;;;;;;4847821;28;21016;-75
2021/01/09 03:13:30;;;;;;;19.00;11.80;;;-1.10;1.00;;;;;;4848551;28;20729;-76
2021/01/09 03:15:52;;;;;;;19.50;12.57;;;-1.10;1.00;;;;;;4846842;28;21073;-77
2021/01/09 03:18:14;;;;;;;18.33;11.90;;;-1.10;1.00;;;;;;4864693;28;20669;-74
2021/01/09 03:20:36;;;;;;;20.13;12.97;;;-1.10;7.70;;;;;;4851425;28;20625;-76
2021/01/09 03:22:58;;;;;;;23.93;14.50;;;-1.00;19.10;;;;;;4846999;28;20612;-76
2021/01/09 03:25:20;;;;;;;23.67;17.40;;;-0.90;27.50;;;;;;4848832;28;21263;-79
2021/01/09 03:27:43;;;;;;;22.90;15.27;;;-0.90;35.30;;;;;;4849195;28;20600;-75
2021/01/09 03:30:07;;;;;;;18.70;12.90;;;-0.70;41.40;;;;;;4849268;28;20657;-77
2021/01/09 03:32:30;;;;;;;20.07;12.83;;;-0.80;44.00;;;;;;4846731;28;20747;-77
2021/01/09 03:34:52;;;;;;;20.40;12.63;;;-0.70;44.60;;;;;;4842336;28;20616;-75
2021/01/09 03:37:15;;;;;;;20.23;12.90;;;-0.60;44.00;;;;;;4845415;28;20627;-75
2021/01/09 03:39:37;;;;;;;19.83;13.00;;;-0.50;33.70;;;;;;4846118;28;21172;-77
2021/01/09 03:41:59;;;;;;;16.47;11.20;;;-0.50;33.20;;;;;;4847973;28;20673;-75
2021/01/09 03:44:21;;;;;;;18.27;12.33;;;-0.50;27.90;;;;;;4829327;28;21289;-78
2021/01/09 03:46:44;;;;;;;18.50;11.63;;;-0.40;21.80;;;;;;4839068;28;20608;-77
2021/01/09 03:49:06;;;;;;;19.57;13.60;;;-0.40;15.90;;;;;;4827700;28;20640;-76
2021/01/09 03:51:28;;;;;;;20.10;13.10;;;-0.40;9.20;;;;;;4842092;28;20620;-79
2021/01/09 03:53:50;;;;;;;20.67;14.90;;;-0.40;1.00;;;;;;4842777;28;20658;-76
2021/01/09 03:56:13;;;;;;;23.63;15.23;;;-0.30;1.00;;;;;;4846245;28;20627;-74
2021/01/09 03:58:35;;;;;;;23.33;14.40;;;-0.30;1.00;;;;;;4844072;28;20661;-77
2021/01/09 04:00:57;;;;;;;22.27;14.70;;;-0.30;1.00;;;;;;4828281;28;20623;-77
2021/01/09 04:03:20;;;;;;;20.17;13.40;;;-0.30;1.00;;;;;;4847104;28;20628;-79
2021/01/09 04:05:42;;;;;;;18.67;12.63;;;-0.30;1.00;;;;;;4852049;28;20659;-77
2021/01/09 04:08:04;;;;;;;18.67;12.43;;;-0.20;1.00;;;;;;4828161;28;21233;-77
2021/01/09 04:10:26;;;;;;;18.53;12.23;;;-0.20;1.00;;;;;;4841568;28;20644;-77
2021/01/09 04:12:49;;;;;;;21.03;15.10;;;-0.10;1.00;;;;;;4848399;28;20643;-76
2021/01/09 04:15:11;;;;;;;24.20;16.30;;;-0.10;1.00;;;;;;4854804;28;20627;-76
2021/01/09 04:17:34;;;;;;;19.63;14.43;;;0.00;1.00;;;;;;4846349;28;20604;-76
2021/01/09 04:19:57;;;;;;;18.57;13.60;;;-0.10;1.00;;;;;;4842167;28;20659;-76
2021/01/09 04:22:19;;;;;;;17.20;11.97;;;0.00;1.00;;;;;;4847614;28;20620;-78
2021/01/09 04:24:41;;;;;;;20.27;13.10;;;0.00;1.00;;;;;;4847601;28;21199;-77
2021/01/09 04:27:04;;;;;;;17.93;11.73;;;0.00;1.00;;;;;;4847263;28;20773;-76
2021/01/09 04:29:27;;;;;;;16.77;10.73;;;0.10;1.00;;;;;;4846643;28;20186;-76
2021/01/09 04:31:50;;;;;;;17.53;11.80;;;0.10;1.00;;;;;;4826802;28;20637;-76
2021/01/09 04:34:12;;;;;;;19.30;12.17;;;0.10;1.00;;;;;;4828134;28;20637;-78
2021/01/09 04:36:35;;;;;;;18.03;13.13;;;0.10;1.00;;;;;;4844623;28;21015;-75
2021/01/09 04:38:57;;;;;;;20.37;12.73;;;0.10;1.00;;;;;;4845727;28;20670;-78
2021/01/09 04:41:21;;;;;;;19.60;12.40;;;0.20;1.00;;;;;;4846381;28;20679;-77
2021/01/09 04:43:43;;;;;;;17.30;11.47;;;0.10;1.00;;;;;;4847343;28;20666;-79
2021/01/09 04:46:06;;;;;;;19.83;12.30;;;0.10;1.00;;;;;;4842614;28;20668;-77
2021/01/09 04:48:29;;;;;;;19.17;13.63;;;0.20;1.00;;;;;;4846203;28;20600;-76
2021/01/09 04:50:52;;;;;;;18.60;13.43;;;0.10;1.00;;;;;;4855032;28;20202;-75
2021/01/09 04:53:15;;;;;;;21.90;12.80;;;0.20;1.00;;;;;;4848004;28;20653;-80
2021/01/09 04:55:38;;;;;;;18.60;12.80;;;0.10;1.00;;;;;;4840839;28;20624;-77
2021/01/09 04:58:01;;;;;;;17.47;12.50;;;0.20;1.00;;;;;;4830707;28;20628;-75
2021/01/09 05:00:24;;;;;;;19.03;12.97;;;0.20;1.00;;;;;;4844404;28;20632;-79
2021/01/09 05:02:47;;;;;;;19.90;12.70;;;0.20;1.00;;;;;;4844447;28;20746;-77
2021/01/09 05:05:10;;;;;;;19.77;13.43;;;0.20;1.00;;;;;;4845193;28;21236;-80
2021/01/09 05:07:32;;;;;;;21.10;15.37;;;0.20;1.00;;;;;;4857122;28;20969;-75
2021/01/09 05:10:02;;;;;;;21.80;13.67;;;0.30;1.00;;;;;;4850396;28;20218;-78
2021/01/09 05:12:24;;;;;;;19.60;12.33;;;0.40;1.00;;;;;;4851990;28;21265;-78
2021/01/09 05:14:47;;;;;;;15.77;11.80;;;0.30;1.00;;;;;;4851803;28;21172;-76
2021/01/09 05:17:09;;;;;;;17.23;11.97;;;0.30;1.00;;;;;;4843371;28;20624;-77
2021/01/09 05:19:31;;;;;;;16.80;10.73;;;0.30;1.00;;;;;;4831477;28;20734;-75
2021/01/09 05:21:55;;;;;;;15.87;12.10;;;0.20;1.00;;;;;;4841687;28;21308;-75
2021/01/09 05:24:18;;;;;;;16.27;11.27;;;0.20;1.00;;;;;;4856538;28;21043;-74
2021/01/09 05:26:41;;;;;;;16.53;11.60;;;0.20;1.00;;;;;;4844057;28;20626;-76
2021/01/09 05:29:05;;;;;;;17.40;11.77;;;0.20;1.00;;;;;;4851577;28;20682;-74
2021/01/09 05:31:28;;;;;;;19.57;12.23;;;0.30;1.00;;;;;;4849525;28;20612;-75
2021/01/09 05:33:51;;;;;;;19.30;12.53;;;0.30;1.00;;;;;;4844347;28;20198;-75
2021/01/09 05:36:14;;;;;;;20.70;12.37;;;0.40;1.00;;;;;;4847689;28;20660;-74
2021/01/09 05:38:38;;;;;;;18.43;12.70;;;0.30;1.00;;;;;;4850620;28;20611;-76
2021/01/09 05:41:05;;;;;;;17.53;11.93;;;0.40;1.00;;;;;;4858480;28;20201;-74
2021/01/09 05:43:28;;;;;;;14.90;10.33;;;0.40;1.00;;;;;;4850407;28;20248;-75
2021/01/09 05:45:51;;;;;;;14.53;10.63;;;0.40;1.00;;;;;;4848040;28;20218;-75
2021/01/09 05:48:14;;;;;;;16.50;12.23;;;0.60;1.00;;;;;;4849866;28;21238;-74
2021/01/09 05:50:41;;;;;;;17.13;12.00;;;0.60;1.00;;;;;;4849982;28;20670;-75
2021/01/09 05:53:03;;;;;;;18.77;12.77;;;0.50;1.00;;;;;;4845277;28;20600;-75
2021/01/09 05:55:39;;;;;;;15.47;10.87;;;0.50;1.00;;;;;;4857602;28;20650;-75
2021/01/09 05:58:06;;;;;;;15.10;10.87;;;0.50;1.00;;;;;;4857385;28;20190;-76
2021/01/09 06:00:34;;;;;;;16.73;11.13;;;0.40;1.00;;;;;;4844662;28;21009;-75
2021/01/09 06:03:02;;;;;;;18.40;11.67;;;0.40;1.00;;;;;;4849039;28;20230;-75
2021/01/09 06:05:34;;;;;;;14.60;10.57;;;0.30;1.00;;;;;;4849885;28;20689;-74
2021/01/09 06:08:02;;;;;;;13.17;10.27;;;0.30;1.00;;;;;;4854242;28;20182;-75
2021/01/09 06:10:28;;;;;;;16.03;10.73;;;0.30;1.00;;;;;;4846866;28;20705;-74
2021/01/09 06:13:00;;;;;;;16.57;11.07;;;0.20;1.00;;;;;;4844776;28;20697;-74
2021/01/09 06:15:24;;;;;;;17.03;11.50;;;0.20;1.00;;;;;;4844825;28;20693;-75
2021/01/09 06:17:47;;;;;;;18.37;12.00;;;0.10;1.00;;;;;;4828136;28;20678;-74
2021/01/09 06:20:11;;;;;;;16.37;11.63;;;0.10;1.00;;;;;;4850012;28;21222;-73
2021/01/09 06:22:33;;;;;;;17.63;11.77;;;0.00;1.00;;;;;;4825112;28;21204;-77
2021/01/09 06:24:56;;;;;;;19.90;13.23;;;0.00;1.00;;;;;;4856540;28;20646;-75
2021/01/09 06:27:22;;;;;;;22.33;15.77;;;-0.10;1.00;;;;;;4855605;28;20623;-74
2021/01/09 06:29:49;;;;;;;21.23;13.07;;;-0.20;1.00;;;;;;4850325;28;21176;-75
2021/01/09 06:32:12;;;;;;;18.80;12.70;;;-0.20;1.00;;;;;;4849594;28;20611;-74
2021/01/09 06:34:39;;;;;;;21.17;13.30;;;-0.40;1.00;;;;;;4843573;28;20620;-74
2021/01/09 06:37:04;;;;;;;20.53;13.53;;;-0.50;1.00;;;;;;4850350;28;20603;-80
2021/01/09 06:39:28;;;;;;;20.73;13.50;;;-0.60;1.00;;;;;;4850170;28;21030;-76
2021/01/09 06:41:53;;;;;;;21.50;13.77;;;-0.70;1.00;;;;;;4848209;28;20623;-75
2021/01/09 06:44:15;;;;;;;22.93;14.73;;;-0.70;1.00;;;;;;4848758;28;20666;-81
2021/01/09 06:46:41;;;;;;;25.60;17.50;;;-0.70;1.00;;;;;;4846199;28;21030;-77
2021/01/09 06:49:04;;;;;;;23.83;16.00;;;-0.90;1.00;;;;;;4847492;28;20608;-76
2021/01/09 06:51:44;;;;;;;25.00;15.43;;;-0.90;1.00;;;;;;4853817;28;20673;-76
2021/01/09 06:54:24;;;;;;;22.30;13.77;;;-0.90;1.00;;;;;;4846077;28;21265;-76
2021/01/09 06:56:47;;;;;;;20.13;13.40;;;-1.00;1.00;;;;;;4847036;28;21207;-77
2021/01/09 06:59:09;;;;;;;23.03;13.47;;;-0.90;1.00;;;;;;4846287;28;20629;-75
2021/01/09 07:01:36;;;;;;;26.20;18.43;;;-0.80;2.30;;;;;;4853530;28;20697;-75
2021/01/09 07:03:59;;;;;;;25.87;17.27;;;-0.90;9.90;;;;;;4850237;28;20631;-75
2021/01/09 07:06:58;;;;;;;23.23;16.83;;;-0.70;17.50;;;;;;4829580;28;21287;-74
2021/01/09 07:09:24;;;;;;;22.93;14.47;;;-0.80;26.30;;;;;;4782497;28;21305;-74
2021/01/09 07:11:48;;;;;;;20.90;13.37;;;-0.60;36.00;;;;;;4840502;28;21196;-75
2021/01/09 07:14:15;;;;;;;19.57;13.30;;;-0.40;38.70;;;;;;4848037;28;20619;-76
2021/01/09 07:16:39;;;;;;;19.70;12.90;;;-0.50;38.90;;;;;;4847250;28;21233;-78
2021/01/09 07:19:02;;;;;;;20.70;13.70;;;-0.40;37.20;;;;;;4852731;28;21079;-76
2021/01/09 07:21:25;;;;;;;21.70;15.03;;;-0.40;35.90;;;;;;4846980;28;21211;-75
2021/01/09 07:23:51;;;;;;;21.77;14.43;;;-0.30;34.10;;;;;;4848146;28;20615;-75
2021/01/09 07:26:14;;;;;;;30.27;14.00;;;-0.30;30.00;;;;;;4841714;28;20691;-74
2021/01/09 07:28:37;;;;;;;20.63;14.23;;;-0.30;25.60;;;;;;4820613;28;21256;-74
2021/01/09 07:31:03;;;;;;;19.73;14.10;;;-0.20;21.80;;;;;;4845041;28;20625;-74
2021/01/09 07:33:30;;;;;;;25.20;15.43;;;0.00;12.20;;;;;;4855394;28;20657;-75
2021/01/09 07:35:54;;;;;;;23.00;15.27;;;-0.20;11.30;;;;;;4846319;28;20619;-74
2021/01/09 07:38:19;;;;;;;28.17;19.53;;;-0.10;5.50;;;;;;4846489;28;20674;-77
2021/01/09 07:40:54;;;;;;;25.57;19.17;;;-0.10;1.00;;;;;;4825559;28;20624;-78
2021/01/09 07:43:34;;;;;;;24.23;16.87;;;-0.10;1.00;;;;;;4847345;28;20938;-79
2021/01/09 07:45:59;;;;;;;26.70;16.63;;;0.00;1.00;;;;;;4846558;28;20659;-76
2021/01/09 07:48:21;;;;;;;25.63;15.13;;;0.10;1.00;;;;;;4846992;28;20612;-78
2021/01/09 07:50:43;;;;;;;25.77;15.63;;;0.10;1.00;;;;;;4852145;28;20662;-76
2021/01/09 07:53:06;;;;;;;23.57;15.90;;;0.30;1.00;;;;;;4846331;28;20600;-78
2021/01/09 07:55:44;;;;;;;22.67;14.93;;;0.30;1.00;;;;;;4846515;28;20612;-75
2021/01/09 07:58:07;;;;;;;24.13;15.97;;;0.40;1.00;;;;;;4840679;28;21258;-76
2021/01/09 08:00:29;;;;;;;25.30;17.13;;;0.60;1.00;;;;;;4844177;28;20608;-76
2021/01/09 08:02:53;;;;;;;25.97;17.37;;;0.70;1.00;;;;;;4844198;28;20222;-78
2021/01/09 08:05:19;;;;;;;20.87;15.20;;;0.80;1.00;;;;;;4848906;28;20206;-75
2021/01/09 08:07:42;;;;;;;22.17;15.73;;;1.00;1.00;;;;;;4844645;28;20661;-75
2021/01/09 08:10:25;;;;;;;20.47;13.93;;;1.10;1.00;;;;;;4844928;28;21183;-75
2021/01/09 08:12:52;;;;;;;16.77;12.80;;;1.40;1.00;;;;;;4855476;28;20729;-76
2021/01/09 08:15:15;;;;;;;20.90;14.30;;;1.30;1.00;;;;;;4849630;28;20619;-76
2021/01/09 08:17:37;;;;;;;19.97;13.67;;;1.60;1.00;;;;;;4844759;28;20611;-75
2021/01/09 08:20:09;;;;;;;19.03;12.90;;;1.70;99.90;;;;;;4827844;28;20285;-75
2021/01/09 08:22:31;;;;;;;18.93;12.97;;;2.00;99.90;;;;;;4846233;28;20233;-75
2021/01/09 08:24:53;;;;;;;18.10;13.07;;;2.00;99.90;;;;;;4843282;28;20232;-74
2021/01/09 08:27:20;;;;;;;18.00;12.67;;;2.10;99.90;;;;;;4850466;28;20196;-78
2021/01/09 08:29:42;;;;;;;17.27;12.87;;;2.20;1.00;;;;;;4847160;28;20296;-77
2021/01/09 08:32:13;;;;;;;20.17;13.10;;;2.30;99.90;;;;;;4841288;28;20191;-75
2021/01/09 08:34:35;;;;;;;15.27;11.87;;;2.40;99.90;;;;;;4847794;28;20206;-75
2021/01/09 08:36:58;;;;;;;18.33;12.43;;;2.50;1.00;;;;;;4848771;28;20240;-76
2021/01/09 08:39:20;;;;;;;17.40;11.50;;;2.60;1.00;;;;;;4839614;28;20672;-74
2021/01/09 08:41:43;;;;;;;14.50;10.63;;;2.70;1.00;;;;;;4851866;28;20758;-75
2021/01/09 08:44:06;;;;;;;14.47;10.57;;;3.00;99.90;;;;;;4851878;28;20189;-78
2021/01/09 08:46:28;;;;;;;17.67;11.80;;;2.90;1.00;;;;;;4848077;28;20568;-75
2021/01/09 08:48:51;;;;;;;15.33;11.33;;;3.00;82.90;;;;;;4846178;28;20198;-75
2021/01/09 08:51:14;;;;;;;15.70;11.50;;;3.10;1.00;;;;;;4850723;28;20248;-77
2021/01/09 08:53:43;;;;;;;14.27;10.67;;;3.20;1.00;;;;;;4844454;28;20187;-74
2021/01/09 08:56:08;;;;;;;14.00;10.37;;;3.20;99.90;;;;;;4852677;28;20256;-75
2021/01/09 08:58:32;;;;;;;16.03;11.10;;;3.30;99.90;;;;;;4841333;28;20191;-72
2021/01/09 09:00:56;;;;;;;15.60;11.03;;;3.50;99.90;;;;;;4841210;28;20241;-71
2021/01/09 09:03:19;;;;;;;14.37;10.63;;;3.70;99.90;;;;;;4860764;28;20186;-73
2021/01/09 09:05:44;;;;;;;14.77;10.53;;;3.80;99.90;;;;;;4858598;28;20226;-72
2021/01/09 09:08:10;;;;;;;13.40;10.17;;;4.10;67.20;;;;;;4858655;28;20198;-71
2021/01/09 09:10:33;;;;;;;13.03;9.57;;;4.20;1.00;;;;;;4859296;28;20810;-71
2021/01/09 09:12:55;;;;;;;13.80;10.03;;;4.40;1.00;;;;;;4860284;28;20226;-72
2021/01/09 09:15:28;;;;;;;13.17;9.80;;;4.50;1.00;;;;;;4859361;28;20228;-71
2021/01/09 09:17:51;;;;;;;14.40;10.10;;;4.90;1.00;;;;;;4860225;28;20186;-71
2021/01/09 09:20:16;;;;;;;12.70;10.00;;;5.00;1.00;;;;;;4856915;28;20271;-71
2021/01/09 09:22:39;;;;;;;13.17;9.83;;;5.10;99.90;;;;;;4856198;28;20182;-71
2021/01/09 09:25:01;;;;;;;13.17;10.53;;;5.10;99.90;;;;;;4839912;28;20661;-74
2021/01/09 09:27:24;;;;;;;13.57;10.83;;;5.10;99.90;;;;;;4851383;28;20182;-72
2021/01/09 09:29:47;;;;;;;12.90;9.97;;;5.10;99.90;;;;;;4860167;28;20628;-76
2021/01/09 09:32:09;;;;;;;12.50;10.40;;;5.20;99.90;;;;;;4860282;28;20379;-74
2021/01/09 09:34:31;;;;;;;12.23;9.03;;;5.10;99.90;;;;;;4842218;28;20198;-74
2021/01/09 09:37:00;;;;;;;12.20;9.47;;;5.20;99.90;;;;;;4872449;28;20193;-73
2021/01/09 09:39:25;;;;;;;13.53;9.83;;;5.10;99.90;;;;;;4850028;28;20187;-75
2021/01/09 09:41:52;;;;;;;12.37;9.80;;;5.00;59.80;;;;;;4840854;28;20187;-76
2021/01/09 09:44:14;;;;;;;13.67;8.73;;;4.90;64.50;;;;;;4845817;28;20652;-74
2021/01/09 09:46:41;;;;;;;12.27;9.73;;;4.70;99.90;;;;;;4859660;28;20210;-75
2021/01/09 09:49:03;;;;;;;13.83;9.60;;;4.50;99.90;;;;;;4859892;28;20178;-74
2021/01/09 09:51:33;;;;;;;12.67;9.30;;;4.20;99.90;;;;;;4857688;28;20189;-75
2021/01/09 09:53:55;;;;;;;11.43;8.73;;;4.10;99.90;;;;;;4859654;28;20189;-73
2021/01/09 09:56:20;;;;;;;12.50;9.57;;;4.00;1.00;;;;;;4859810;28;20679;-77
2021/01/09 09:58:43;;;;;;;19.20;11.20;;;4.00;1.00;;;;;;4857795;28;20249;-74
2021/01/09 10:01:19;;;;;;;16.73;10.93;;;4.00;1.00;;;;;;4838989;28;20199;-75
2021/01/09 10:03:41;;;;;;;13.53;10.00;;;4.00;1.00;;;;;;4858091;28;20206;-77
2021/01/09 10:06:03;;;;;;;11.67;9.70;;;4.00;1.00;;;;;;4843601;28;20691;-74
2021/01/09 10:08:26;;;;;;;12.57;10.10;;;4.00;1.00;;;;;;4839324;28;20649;-76
2021/01/09 10:10:50;;;;;;;13.03;10.17;;;4.00;1.00;;;;;;4855227;28;20644;-73
2021/01/09 10:13:24;;;;;;;15.17;10.40;;;3.90;1.00;;;;;;4859426;28;21025;-74
2021/01/09 10:15:46;;;;;;;16.43;12.60;;;4.00;1.00;;;;;;4840532;28;20253;-74
2021/01/09 10:18:09;;;;;;;18.50;12.73;;;3.90;1.00;;;;;;4873422;28;20181;-74
2021/01/09 10:20:31;;;;;;;16.57;12.13;;;3.80;1.00;;;;;;4854092;28;20183;-74
2021/01/09 10:22:54;;;;;;;18.67;12.30;;;3.80;1.00;;;;;;4831961;28;20199;-73
2021/01/09 10:25:17;;;;;;;18.00;13.13;;;3.70;1.00;;;;;;4840242;28;20190;-76
2021/01/09 10:27:39;;;;;;;21.00;13.27;;;3.70;1.00;;;;;;4839688;28;20206;-74
2021/01/09 10:30:02;;;;;;;19.03;13.80;;;3.70;1.00;;;;;;4840173;28;20237;-74
2021/01/09 10:32:24;;;;;;;18.07;12.63;;;3.70;1.00;;;;;;4848684;28;20686;-74
2021/01/09 10:34:46;;;;;;;19.33;13.40;;;3.70;1.00;;;;;;4858156;28;20186;-72
2021/01/09 10:37:08;;;;;;;17.83;13.20;;;3.80;1.00;;;;;;4856975;28;20190;-77
2021/01/09 10:39:30;;;;;;;19.90;12.90;;;3.80;1.00;;;;;;4857007;28;20190;-74
2021/01/09 10:41:52;;;;;;;17.80;12.97;;;3.90;1.00;;;;;;4857366;28;20192;-76
2021/01/09 10:44:14;;;;;;;18.40;11.57;;;3.70;1.00;;;;;;4857671;28;20190;-75
2021/01/09 10:46:37;;;;;;;18.47;12.40;;;3.70;1.00;;;;;;4857860;28;20240;-79
2021/01/09 10:48:59;;;;;;;17.57;12.00;;;3.60;1.00;;;;;;4856487;28;20209;-74
2021/01/09 10:51:23;;;;;;;18.40;11.83;;;3.60;1.00;;;;;;4857981;28;20240;-75
2021/01/09 10:53:46;;;;;;;18.90;12.17;;;3.60;1.00;;;;;;4857637;28;20236;-73
2021/01/09 10:56:08;;;;;;;20.17;12.53;;;3.50;1.00;;;;;;4854452;28;20240;-76
2021/01/09 10:58:30;;;;;;;17.00;11.07;;;3.50;1.00;;;;;;4857388;28;20248;-76
2021/01/09 11:00:54;;;;;;;18.53;13.40;;;3.40;1.00;;;;;;4854310;28;20704;-74
2021/01/09 11:03:17;;;;;;;18.60;12.33;;;3.30;1.00;;;;;;4838790;28;20268;-74
2021/01/09 11:05:40;;;;;;;20.57;13.40;;;3.30;1.00;;;;;;4857250;28;20241;-74
2021/01/09 11:08:03;;;;;;;20.47;14.00;;;3.30;64.10;;;;;;4856114;28;20271;-73
2021/01/09 11:10:25;;;;;;;18.30;13.13;;;3.30;99.90;;;;;;4857304;28;20202;-73
2021/01/09 11:12:47;;;;;;;19.90;13.10;;;3.20;99.90;;;;;;4857254;28;20839;-76
2021/01/09 11:15:10;;;;;;;25.30;13.93;;;3.20;99.90;;;;;;4856141;28;20228;-76
2021/01/09 11:17:32;;;;;;;19.93;12.20;;;3.20;99.90;;;;;;4856181;28;20201;-75
2021/01/09 11:19:55;;;;;;;18.93;11.63;;;3.20;99.90;;;;;;4858349;28;20252;-73
2021/01/09 11:22:18;;;;;;;14.80;10.90;;;3.20;99.90;;;;;;4857012;28;20758;-74
2021/01/09 11:24:40;;;;;;;14.33;9.90;;;3.20;99.90;;;;;;4840466;28;20198;-75
2021/01/09 11:27:03;;;;;;;15.60;10.87;;;3.10;99.90;;;;;;4858162;28;20267;-75
2021/01/09 11:29:25;;;;;;;14.63;10.13;;;3.10;99.90;;;;;;4856888;28;20202;-75
2021/01/09 11:31:48;;;;;;;13.90;9.67;;;3.20;99.90;;;;;;4857924;28;20186;-75
2021/01/09 11:34:10;;;;;;;14.87;9.73;;;3.20;99.90;;;;;;4858103;28;20190;-75
2021/01/09 11:36:33;;;;;;;17.63;11.00;;;3.20;99.90;;;;;;4858066;28;20526;-73
2021/01/09 11:38:55;;;;;;;15.47;10.37;;;3.40;99.90;;;;;;4857939;28;20197;-73
2021/01/09 11:41:18;;;;;;;15.10;10.80;;;3.20;99.90;;;;;;4853495;28;20237;-74
2021/01/09 11:43:41;;;;;;;17.97;11.97;;;3.50;99.90;;;;;;4857731;28;20248;-73
2021/01/09 11:46:05;;;;;;;15.50;10.20;;;3.40;99.90;;;;;;4839855;28;20229;-73
2021/01/09 11:48:27;;;;;;;12.87;8.93;;;3.50;99.90;;;;;;4856162;28;20628;-76
2021/01/09 11:50:50;;;;;;;14.83;9.90;;;3.60;1.00;;;;;;4857631;28;20190;-74
2021/01/09 11:53:13;;;;;;;14.73;10.00;;;3.50;1.00;;;;;;4856424;28;20583;-74
2021/01/09 11:55:35;;;;;;;14.80;9.80;;;3.50;1.00;;;;;;4856447;28;20302;-73
2021/01/09 11:57:57;;;;;;;12.47;9.57;;;3.60;1.00;;;;;;4842435;28;20202;-74
2021/01/09 12:00:20;;;;;;;13.07;10.07;;;3.50;1.00;;;;;;4846853;28;20240;-73
2021/01/09 12:02:42;;;;;;;14.73;10.60;;;3.60;1.00;;;;;;4849332;28;20214;-72
2021/01/09 12:05:05;;;;;;;14.23;10.83;;;3.40;1.00;;;;;;4852696;28;20240;-77
2021/01/09 12:07:27;;;;;;;15.03;10.33;;;3.60;1.00;;;;;;4846275;28;20214;-74
2021/01/09 12:09:50;;;;;;;15.03;10.83;;;3.50;1.00;;;;;;4845962;28;20202;-76
2021/01/09 12:12:13;;;;;;;14.13;10.27;;;3.50;1.00;;;;;;4844898;28;20324;-74
2021/01/09 12:14:35;;;;;;;13.83;10.37;;;3.50;1.00;;;;;;4819893;28;20200;-73
2021/01/09 12:17:00;;;;;;;15.07;11.33;;;3.40;1.00;;;;;;4841937;28;20183;-74
2021/01/09 12:19:24;;;;;;;16.93;12.07;;;3.40;1.00;;;;;;4853142;28;20560;-73
2021/01/09 12:21:52;;;;;;;15.27;11.57;;;3.40;1.00;;;;;;4844190;28;20588;-74
2021/01/09 12:24:14;;;;;;;16.20;11.83;;;3.30;1.00;;;;;;4846860;28;20194;-74